Time,TemperatureF,DewpointF,PressureIn,WindDirection,WindDirectionDegrees,WindSpeedMPH,WindSpeedGustMPH,Humidity,HourlyPrecipIn,Conditions,Clouds,dailyrainin,SolarRadiationWatts/m^2,SoftwareType,DateUTC
2013-03-30 00:12:00,33.0,27.0,-100.00,NW,307,0.0,4.0,79,0.00,,,0.32,0.000000,,2013-03-30 08:12:00,
2013-03-30 00:21:00,33.0,27.0,-100.00,NW,307,0.0,4.0,79,0.00,,,0.32,0.000000,,2013-03-30 08:21:00,
2013-03-30 00:32:00,33.0,27.0,-100.00,NW,307,0.0,4.0,79,0.00,,,0.32,0.000000,,2013-03-30 08:32:00,
2013-03-30 00:42:00,33.0,27.0,-100.00,NW,307,0.0,4.0,79,0.00,,,0.32,0.000000,,2013-03-30 08:42:00,
2013-03-30 00:52:00,33.0,27.0,-100.00,NW,307,0.0,4.0,79,0.00,,,0.32,0.000000,,2013-03-30 08:52:00,
2013-03-30 01:22:00,33.0,30.0,-100.00,WSW,243,1.0,2.0,90,0.00,,,0.32,0.000000,,2013-03-30 09:22:00,
2013-03-30 01:33:00,33.0,30.0,-100.00,WSW,243,1.0,2.0,90,0.00,,,0.32,0.000000,,2013-03-30 09:33:00,
2013-03-30 01:42:00,33.0,30.0,-100.00,WSW,243,1.0,2.0,90,0.00,,,0.32,0.000000,,2013-03-30 09:42:00,
2013-03-30 01:52:00,33.0,30.0,-100.00,WSW,243,1.0,2.0,90,0.00,,,0.32,0.000000,,2013-03-30 09:52:00,
2013-03-30 02:12:00,32.0,32.0,-100.00,WNW,295,0.0,2.0,98,0.00,,,0.32,0.000000,,2013-03-30 10:12:00,
2013-03-30 02:23:00,32.0,32.0,-100.00,WNW,295,0.0,2.0,98,0.00,,,0.32,0.000000,,2013-03-30 10:23:00,
2013-03-30 02:32:00,32.0,32.0,-100.00,WNW,295,0.0,2.0,98,0.00,,,0.32,0.000000,,2013-03-30 10:32:00,
2013-03-30 02:42:00,32.0,32.0,-100.00,WNW,295,0.0,2.0,98,0.00,,,0.32,0.000000,,2013-03-30 10:42:00,
2013-03-30 02:52:00,32.0,32.0,-100.00,WNW,295,0.0,2.0,98,0.00,,,0.32,0.000000,,2013-03-30 10:52:00,
2013-03-30 03:12:00,31.0,31.0,-100.00,North,1,0.0,2.0,99,0.00,,,-99.99,0.000000,,2013-03-30 11:12:00,
2013-03-30 03:22:00,31.0,31.0,-100.00,North,1,0.0,2.0,99,0.00,,,-99.99,0.000000,,2013-03-30 11:22:00,
2013-03-30 03:32:00,31.0,31.0,-100.00,North,1,0.0,2.0,99,0.00,,,-99.99,0.000000,,2013-03-30 11:32:00,
2013-03-30 03:42:00,31.0,31.0,-100.00,North,1,0.0,2.0,99,0.00,,,-99.99,0.000000,,2013-03-30 11:42:00,
2013-03-30 03:52:00,31.0,31.0,-100.00,North,1,0.0,2.0,99,0.00,,,-99.99,0.000000,,2013-03-30 11:52:00,
2013-03-30 04:22:00,30.0,30.0,-100.00,NNE,17,0.0,1.0,100,0.00,,,0.32,0.000000,,2013-03-30 12:22:00,
2013-03-30 04:32:00,30.0,30.0,-100.00,NNE,17,0.0,1.0,100,0.00,,,0.32,0.000000,,2013-03-30 12:32:00,
2013-03-30 04:42:00,30.0,30.0,-100.00,NNE,17,0.0,1.0,100,0.00,,,0.32,0.000000,,2013-03-30 12:42:00,
2013-03-30 04:52:00,30.0,30.0,-100.00,NNE,17,0.0,1.0,100,0.00,,,0.32,0.000000,,2013-03-30 12:52:00,
2013-03-30 05:12:00,30.0,30.0,-100.00,NNE,14,0.0,1.0,100,0.00,,,0.32,0.000000,,2013-03-30 13:12:00,
2013-03-30 05:22:00,30.0,30.0,-100.00,NNE,14,0.0,1.0,100,0.00,,,0.32,0.000000,,2013-03-30 13:22:00,
2013-03-30 05:32:00,30.0,30.0,-100.00,NNE,14,0.0,1.0,100,0.00,,,0.32,0.000000,,2013-03-30 13:32:00,
2013-03-30 05:42:00,30.0,30.0,-100.00,NNE,14,0.0,1.0,100,0.00,,,0.32,0.000000,,2013-03-30 13:42:00,
2013-03-30 05:52:00,30.0,30.0,-100.00,NNE,14,0.0,1.0,100,0.00,,,0.32,0.000000,,2013-03-30 13:52:00,
2013-03-30 06:22:00,30.0,30.0,-100.00,NNW,335,0.0,1.0,100,0.00,,,0.32,0.000000,,2013-03-30 14:22:00,
2013-03-30 06:32:00,30.0,30.0,-100.00,NNW,335,0.0,1.0,100,0.00,,,0.32,0.000000,,2013-03-30 14:32:00,
2013-03-30 06:42:00,30.0,30.0,-100.00,NNW,335,0.0,1.0,100,0.00,,,0.32,0.000000,,2013-03-30 14:42:00,
2013-03-30 06:52:00,30.0,30.0,-100.00,NNW,335,0.0,1.0,100,0.00,,,0.32,0.000000,,2013-03-30 14:52:00,
2013-03-30 07:12:00,30.0,30.0,-100.00,NNW,338,0.0,1.0,100,0.00,,,0.32,0.000000,,2013-03-30 15:12:00,
2013-03-30 07:22:00,30.0,30.0,-100.00,NNW,338,0.0,1.0,100,0.00,,,0.32,0.000000,,2013-03-30 15:22:00,
2013-03-30 07:33:00,30.0,30.0,-100.00,NNW,338,0.0,1.0,100,0.00,,,0.32,0.000000,,2013-03-30 15:33:00,
2013-03-30 07:42:00,30.0,30.0,-100.00,NNW,338,0.0,1.0,100,0.00,,,0.32,0.000000,,2013-03-30 15:42:00,
2013-03-30 07:52:00,30.0,30.0,-100.00,NNW,338,0.0,1.0,100,0.00,,,0.32,0.000000,,2013-03-30 15:52:00,
2013-03-30 08:13:00,30.0,30.0,-100.00,WNW,285,0.0,3.0,100,0.00,,,0.32,2.000000,,2013-03-30 16:13:00,
2013-03-30 08:23:00,30.0,30.0,-100.00,WNW,285,0.0,3.0,100,0.00,,,0.32,2.000000,,2013-03-30 16:23:00,
2013-03-30 08:32:00,30.0,30.0,-100.00,WNW,285,0.0,3.0,100,0.00,,,0.32,2.000000,,2013-03-30 16:32:00,
2013-03-30 08:42:00,30.0,30.0,-100.00,WNW,285,0.0,3.0,100,0.00,,,0.32,2.000000,,2013-03-30 16:42:00,
2013-03-30 08:52:00,30.0,30.0,-100.00,WNW,285,0.0,3.0,100,0.00,,,0.32,2.000000,,2013-03-30 16:52:00,
2013-03-30 09:22:00,33.0,32.0,-100.00,North,3,0.0,1.0,98,0.00,,,0.32,31.000000,,2013-03-30 17:22:00,
2013-03-30 09:32:00,33.0,32.0,-100.00,North,3,0.0,1.0,98,0.00,,,0.32,31.000000,,2013-03-30 17:32:00,
2013-03-30 09:42:00,33.0,32.0,-100.00,North,3,0.0,1.0,98,0.00,,,0.32,31.000000,,2013-03-30 17:42:00,
2013-03-30 09:52:00,33.0,32.0,-100.00,North,3,0.0,1.0,98,0.00,,,0.32,31.000000,,2013-03-30 17:52:00,
2013-03-30 10:22:00,38.0,32.0,-100.00,NW,322,0.0,4.0,80,0.00,,,0.32,170.000000,,2013-03-30 18:22:00,
2013-03-30 10:32:00,38.0,32.0,-100.00,NW,322,0.0,4.0,80,0.00,,,0.32,170.000000,,2013-03-30 18:32:00,
2013-03-30 10:42:00,38.0,32.0,-100.00,NW,322,0.0,4.0,80,0.00,,,0.32,170.000000,,2013-03-30 18:42:00,
2013-03-30 10:52:00,38.0,32.0,-100.00,NW,322,0.0,4.0,80,0.00,,,0.32,170.000000,,2013-03-30 18:52:00,
2013-03-30 11:13:00,41.0,31.0,-100.00,NE,36,1.0,3.0,68,0.01,,,0.33,237.000000,,2013-03-30 19:13:00,
2013-03-30 11:22:00,41.0,31.0,-100.00,NE,36,1.0,3.0,68,0.01,,,0.33,237.000000,,2013-03-30 19:22:00,
2013-03-30 11:32:00,41.0,31.0,-100.00,NE,36,1.0,3.0,68,0.01,,,0.33,237.000000,,2013-03-30 19:32:00,
2013-03-30 11:42:00,41.0,31.0,-100.00,NE,36,1.0,3.0,68,0.01,,,0.33,237.000000,,2013-03-30 19:42:00,
2013-03-30 11:52:00,41.0,31.0,-100.00,NE,36,1.0,3.0,68,0.01,,,0.33,237.000000,,2013-03-30 19:52:00,
2013-03-30 12:22:00,44.0,30.0,-100.00,ESE,102,2.0,4.0,57,0.02,,,0.35,311.000000,,2013-03-30 20:22:00,
2013-03-30 12:32:00,44.0,30.0,-100.00,ESE,102,2.0,4.0,57,0.02,,,0.35,311.000000,,2013-03-30 20:32:00,
2013-03-30 12:42:00,44.0,30.0,-100.00,ESE,102,2.0,4.0,57,0.02,,,0.35,311.000000,,2013-03-30 20:42:00,
2013-03-30 12:52:00,44.0,30.0,-100.00,ESE,102,2.0,4.0,57,0.02,,,0.35,311.000000,,2013-03-30 20:52:00,
2013-03-30 13:12:00,49.0,29.0,-100.00,SSE,158,3.0,7.0,46,0.02,,,0.37,592.000000,,2013-03-30 21:12:00,
2013-03-30 13:22:00,49.0,29.0,-100.00,SSE,158,3.0,7.0,46,0.02,,,0.37,592.000000,,2013-03-30 21:22:00,
2013-03-30 14:12:00,47.0,26.0,-100.00,SE,124,4.0,7.0,44,-99.99,,,0.37,585.000000,,2013-03-30 22:12:00,
2013-03-30 14:23:00,47.0,26.0,-100.00,SE,124,4.0,7.0,44,-99.99,,,0.37,585.000000,,2013-03-30 22:23:00,
2013-03-30 14:32:00,47.0,26.0,-100.00,SE,124,4.0,7.0,44,-99.99,,,0.37,585.000000,,2013-03-30 22:32:00,
2013-03-30 14:43:00,47.0,26.0,-100.00,SE,124,4.0,7.0,44,-99.99,,,0.37,585.000000,,2013-03-30 22:43:00,
2013-03-30 14:52:00,47.0,26.0,-100.00,SE,124,4.0,7.0,44,-99.99,,,0.37,585.000000,,2013-03-30 22:52:00,
2013-03-30 15:12:00,47.0,28.0,-100.00,SSE,168,2.0,7.0,47,0.00,,,0.37,470.000000,,2013-03-30 23:12:00,
2013-03-30 15:22:00,47.0,28.0,-100.00,SSE,168,2.0,7.0,47,0.00,,,0.37,470.000000,,2013-03-30 23:22:00,
2013-03-30 15:32:00,47.0,28.0,-100.00,SSE,168,2.0,7.0,47,0.00,,,0.37,470.000000,,2013-03-30 23:32:00,
2013-03-30 16:12:00,47.0,33.0,-100.00,South,183,2.0,6.0,58,-99.99,,,0.37,387.000000,,2013-03-31 00:12:00,
2013-03-30 16:22:00,47.0,33.0,-100.00,South,183,2.0,6.0,58,-99.99,,,0.37,387.000000,,2013-03-31 00:22:00,
2013-03-30 16:32:00,47.0,33.0,-100.00,South,183,2.0,6.0,58,-99.99,,,0.37,387.000000,,2013-03-31 00:32:00,
2013-03-30 16:42:00,47.0,33.0,-100.00,South,183,2.0,6.0,58,-99.99,,,0.37,387.000000,,2013-03-31 00:42:00,
2013-03-30 16:52:00,47.0,33.0,-100.00,South,183,2.0,6.0,58,-99.99,,,0.37,387.000000,,2013-03-31 00:52:00,
2013-03-30 17:22:00,48.0,34.0,-100.00,West,277,3.0,9.0,59,0.00,,,0.24,503.000000,,2013-03-31 01:22:00,
2013-03-30 17:32:00,48.0,34.0,-100.00,West,277,3.0,9.0,59,0.00,,,0.24,503.000000,,2013-03-31 01:32:00,
2013-03-30 17:42:00,48.0,34.0,-100.00,West,277,3.0,9.0,59,0.00,,,0.24,503.000000,,2013-03-31 01:42:00,
2013-03-30 17:52:00,48.0,34.0,-100.00,West,277,3.0,9.0,59,0.00,,,0.24,503.000000,,2013-03-31 01:52:00,
2013-03-30 18:12:00,45.0,30.0,-100.00,North,1,2.0,8.0,55,0.00,,,0.14,361.000000,,2013-03-31 02:12:00,
2013-03-30 18:22:00,45.0,30.0,-100.00,North,1,2.0,8.0,55,0.00,,,0.14,361.000000,,2013-03-31 02:22:00,
2013-03-30 18:32:00,45.0,30.0,-100.00,North,1,2.0,8.0,55,0.00,,,0.14,361.000000,,2013-03-31 02:32:00,
2013-03-30 18:42:00,45.0,30.0,-100.00,North,1,2.0,8.0,55,0.00,,,0.14,361.000000,,2013-03-31 02:42:00,
2013-03-30 18:51:00,45.0,30.0,-100.00,North,1,2.0,8.0,55,0.00,,,0.14,361.000000,,2013-03-31 02:51:00,
2013-03-30 19:12:00,44.0,32.0,-100.00,NNW,337,3.0,7.0,63,0.00,,,0.09,180.000000,,2013-03-31 03:12:00,
2013-03-30 19:22:00,44.0,32.0,-100.00,NNW,337,3.0,7.0,63,0.00,,,0.09,180.000000,,2013-03-31 03:22:00,
2013-03-30 19:32:00,44.0,32.0,-100.00,NNW,337,3.0,7.0,63,0.00,,,0.09,180.000000,,2013-03-31 03:32:00,
2013-03-30 19:43:00,44.0,32.0,-100.00,NNW,337,3.0,7.0,63,0.00,,,0.09,180.000000,,2013-03-31 03:43:00,
2013-03-30 19:53:00,44.0,32.0,-100.00,NNW,337,3.0,7.0,63,0.00,,,0.09,180.000000,,2013-03-31 03:53:00,
2013-03-30 20:22:00,40.0,31.0,-100.00,North,7,1.0,6.0,70,0.00,,,0.07,55.000000,,2013-03-31 04:22:00,
2013-03-30 20:32:00,40.0,31.0,-100.00,North,7,1.0,6.0,70,0.00,,,0.07,55.000000,,2013-03-31 04:32:00,
2013-03-30 20:42:00,40.0,31.0,-100.00,North,7,1.0,6.0,70,0.00,,,0.07,55.000000,,2013-03-31 04:42:00,
2013-03-30 20:52:00,40.0,31.0,-100.00,North,7,1.0,6.0,70,0.00,,,0.07,55.000000,,2013-03-31 04:52:00,
2013-03-30 21:12:00,38.0,27.0,-100.00,NNW,332,1.0,4.0,65,0.00,,,0.06,15.000000,,2013-03-31 05:12:00,
2013-03-30 21:22:00,38.0,27.0,-100.00,NNW,332,1.0,4.0,65,0.00,,,0.06,15.000000,,2013-03-31 05:22:00,
2013-03-30 21:32:00,38.0,27.0,-100.00,NNW,332,1.0,4.0,65,0.00,,,0.06,15.000000,,2013-03-31 05:32:00,
2013-03-30 21:42:00,38.0,27.0,-100.00,NNW,332,1.0,4.0,65,0.00,,,0.06,15.000000,,2013-03-31 05:42:00,
2013-03-30 21:52:00,38.0,27.0,-100.00,NNW,332,1.0,4.0,65,0.00,,,0.06,15.000000,,2013-03-31 05:52:00,
2013-03-30 22:22:00,37.0,28.0,-100.00,NNW,334,0.0,7.0,69,0.00,,,0.06,0.000000,,2013-03-31 06:22:00,
2013-03-30 22:32:00,37.0,28.0,-100.00,NNW,334,0.0,7.0,69,0.00,,,0.06,0.000000,,2013-03-31 06:32:00,
2013-03-30 22:42:00,37.0,28.0,-100.00,NNW,334,0.0,7.0,69,0.00,,,0.06,0.000000,,2013-03-31 06:42:00,
2013-03-30 22:52:00,37.0,28.0,-100.00,NNW,334,0.0,7.0,69,0.00,,,0.06,0.000000,,2013-03-31 06:52:00,
2013-03-30 23:12:00,37.0,29.0,-100.00,ENE,62,2.0,5.0,72,0.00,,,0.05,0.000000,,2013-03-31 07:12:00,
2013-03-30 23:22:00,37.0,29.0,-100.00,ENE,62,2.0,5.0,72,0.00,,,0.05,0.000000,,2013-03-31 07:22:00,
2013-03-30 23:32:00,37.0,29.0,-100.00,ENE,62,2.0,5.0,72,0.00,,,0.05,0.000000,,2013-03-31 07:32:00,
2013-03-30 23:42:00,37.0,29.0,-100.00,ENE,62,2.0,5.0,72,0.00,,,0.05,0.000000,,2013-03-31 07:42:00,
2013-03-30 23:52:00,37.0,29.0,-100.00,ENE,62,2.0,5.0,72,0.00,,,0.05,0.000000,,2013-03-31 07:52:00,